This is the latest recevied weather packets stored in our database for station/object 9W2GDL-10. If no packets are shown the sender has not sent any weather packets the latest 10 day(s).
| Time | Temp. | Humidity | Pressure | Rain* | Wind** | Luminosity | Snow |
|---|---|---|---|---|---|---|---|
| 1788048673 | 29.44° C | 73% | 1012.4 hPa | - | - | - | - |
| 1788048072 | 29.44° C | 72% | 1012.4 hPa | - | - | - | - |
| 1788047471 | 29.44° C | 72% | 1012.2 hPa | - | - | - | - |
| 1788046871 | 29.44° C | 72% | 1012.1 hPa | - | - | - | - |
| 1788046270 | 29.44° C | 71% | 1012 hPa | - | - | - | - |
| 1788045669 | 29.44° C | 70% | 1011.8 hPa | - | - | - | - |
| 1788045068 | 29.44° C | 69% | 1011.7 hPa | - | - | - | - |
| 1788044467 | 30° C | 66% | 1011.7 hPa | - | - | - | - |
| 1788043866 | 31.11° C | 63% | 1011.6 hPa | - | - | - | - |
| 1788043266 | 31.11° C | 63% | 1011.4 hPa | - | - | - | - |
| 1788042665 | 31.11° C | 63% | 1011.5 hPa | - | - | - | - |
| 1788042064 | 31.67° C | 63% | 1011.4 hPa | - | - | - | - |
| 1788041463 | 31.67° C | 63% | 1011.5 hPa | - | - | - | - |
| 1788040862 | 31.11° C | 64% | 1011.5 hPa | - | - | - | - |
| 1788040261 | 31.67° C | 63% | 1011.5 hPa | - | - | - | - |
| 1788039661 | 31.67° C | 63% | 1011.3 hPa | - | - | - | - |
| 1788039060 | 31.67° C | 63% | 1011.4 hPa | - | - | - | - |
| 1788038459 | 31.67° C | 63% | 1011.3 hPa | - | - | - | - |
| 1788037858 | 31.67° C | 63% | 1011.2 hPa | - | - | - | - |
| 1788037256 | 31.67° C | 64% | 1011.1 hPa | - | - | - | - |
| 1788036655 | 32.22° C | 62% | 1010.9 hPa | - | - | - | - |
| 1788020848 | 31.67° C | 65% | 1012.8 hPa | - | - | - | - |
| 1788020247 | 31.67° C | 64% | 1012.8 hPa | - | - | - | - |
| 1788019646 | 32.22° C | 63% | 1012.7 hPa | - | - | - | - |
| 1788019046 | 31.67° C | 66% | 1012.7 hPa | - | - | - | - |
* Rain since midnight (hover to see other rain measurements)
** Current wind speed in m/s (hover to see current wind gust speed)